Time;durP1;ratioP1;P1;durP2;ratioP2;P2;SDS_P1;SDS_P2;PMS_P1;PMS_P2;Temp;Humidity;BMP_temperature;BMP_pressure;BME280_temperature;BME280_humidity;BME280_pressure;Samples;Min_cycle;Max_cycle;Signal;HPM_P1;HPM_P2
2022/05/20 00:00:13;;;;;;;9.00;8.10;;;;;;;19.82;95.84;98688.97;4121504;28;21016;-89
2022/05/20 00:02:19;;;;;;;10.87;9.20;;;;;;;19.79;96.13;98681.31;4110610;28;20668;-89
2022/05/20 00:04:22;;;;;;;11.20;8.77;;;;;;;19.78;96.28;98675.16;4120644;28;20647;-89
2022/05/20 00:06:26;;;;;;;9.73;7.67;;;;;;;19.76;95.46;98678.97;4128004;28;20652;-89
2022/05/20 00:08:29;;;;;;;9.23;6.83;;;;;;;19.74;95.98;98683.53;4111123;28;20680;-89
2022/05/20 00:10:32;;;;;;;10.70;7.80;;;;;;;19.71;95.62;98689.13;4126414;28;20631;-89
2022/05/20 00:12:36;;;;;;;8.80;7.30;;;;;;;19.68;94.90;98679.69;4125066;28;20640;-89
2022/05/20 00:14:39;;;;;;;11.70;7.60;;;;;;;19.65;96.48;98672.03;4110243;28;20644;-89
2022/05/20 00:16:42;;;;;;;8.10;7.00;;;;;;;19.61;94.78;98678.59;4115883;28;20777;-89
2022/05/20 00:18:47;;;;;;;8.90;7.63;;;;;;;19.60;96.14;98674.28;4111938;28;20643;-89
2022/05/20 00:20:50;;;;;;;11.53;7.13;;;;;;;19.58;95.39;98673.59;4123023;28;21261;-89
2022/05/20 00:22:53;;;;;;;8.03;7.23;;;;;;;19.59;94.78;98666.47;4125062;28;20643;-89
2022/05/20 00:27:17;;;;;;;9.40;7.27;;;;;;;19.63;95.46;98666.03;4113882;28;20643;-89
2022/05/20 00:29:20;;;;;;;8.93;8.03;;;;;;;19.64;95.64;98667.72;4139067;28;20654;-88
2022/05/20 00:31:26;;;;;;;13.90;7.43;;;;;;;19.64;94.81;98665.06;4132763;28;20662;-88
2022/05/20 00:33:29;;;;;;;12.17;7.80;;;;;;;19.65;95.88;98661.44;4118158;28;20690;-89
2022/05/20 00:35:34;;;;;;;11.40;7.20;;;;;;;19.65;95.67;98660.59;4117744;28;20679;-89
2022/05/20 00:37:37;;;;;;;9.53;7.40;;;;;;;19.67;94.41;98656.84;4147074;28;20677;-89
2022/05/20 00:39:40;;;;;;;9.00;8.10;;;;;;;19.67;94.35;98651.53;4130907;28;20632;-89
2022/05/20 00:41:43;;;;;;;9.30;7.53;;;;;;;19.63;94.88;98655.44;4112482;28;20639;-89
2022/05/20 00:43:48;;;;;;;8.33;7.53;;;;;;;19.60;95.48;98650.44;4133616;28;20647;-90
2022/05/20 00:45:52;;;;;;;8.30;7.47;;;;;;;19.59;96.21;98647.94;4127561;28;20677;-89
2022/05/20 00:47:56;;;;;;;8.67;7.10;;;;;;;19.56;95.43;98648.25;4146838;28;20641;-89
2022/05/20 00:50:02;;;;;;;10.27;8.20;;;;;;;19.53;96.01;98644.09;4133265;28;20737;-89
2022/05/20 00:52:09;;;;;;;9.60;8.57;;;;;;;19.52;95.78;98646.88;4115317;28;21245;-89
2022/05/20 00:54:15;;;;;;;10.80;8.33;;;;;;;19.49;95.12;98636.59;4107420;28;20645;-89
2022/05/20 00:56:21;;;;;;;10.93;8.53;;;;;;;19.48;95.35;98643.72;4112167;28;20663;-89
2022/05/20 00:58:24;;;;;;;13.93;9.30;;;;;;;19.44;96.23;98642.31;4130814;28;20642;-89
2022/05/20 01:00:29;;;;;;;14.00;9.87;;;;;;;19.38;96.21;98642.91;4149208;28;21200;-89
2022/05/20 01:02:34;;;;;;;10.23;9.23;;;;;;;19.31;96.79;98643.63;4112760;28;20682;-89
2022/05/20 01:04:38;;;;;;;12.03;8.80;;;;;;;19.32;97.08;98636.50;4149342;28;20642;-89
2022/05/20 01:06:41;;;;;;;14.80;8.70;;;;;;;19.29;96.73;98635.00;4129603;28;20655;-89
2022/05/20 01:08:45;;;;;;;10.07;9.00;;;;;;;19.27;96.44;98630.81;4119370;28;20702;-89
2022/05/20 01:10:49;;;;;;;12.00;9.70;;;;;;;19.23;96.52;98630.28;4111225;28;20643;-89
2022/05/20 01:12:53;;;;;;;13.17;9.30;;;;;;;19.23;95.29;98640.03;4116509;28;20638;-89
2022/05/20 01:14:56;;;;;;;10.50;9.43;;;;;;;19.19;95.54;98638.66;4114443;28;20690;-89
2022/05/20 01:16:59;;;;;;;10.80;9.70;;;;;;;19.18;96.46;98629.06;4110316;28;20632;-89
2022/05/20 01:19:02;;;;;;;10.57;9.27;;;;;;;19.15;95.80;98638.09;4121338;28;20619;-89
2022/05/20 01:21:06;;;;;;;12.80;9.13;;;;;;;19.15;96.91;98631.97;4128770;28;20773;-89
2022/05/20 01:23:12;;;;;;;11.60;9.53;;;;;;;19.16;95.87;98629.19;4116834;28;21202;-89
2022/05/20 01:25:16;;;;;;;11.80;9.37;;;;;;;19.14;96.46;98635.59;4132105;28;20639;-89
2022/05/20 01:27:19;;;;;;;11.53;9.30;;;;;;;19.12;96.16;98633.09;4131756;28;20758;-89
2022/05/20 01:29:22;;;;;;;10.33;9.10;;;;;;;19.10;95.71;98632.41;4135595;28;20619;-89
2022/05/20 01:31:25;;;;;;;9.37;8.50;;;;;;;19.07;96.25;98635.34;4129555;28;21061;-89
2022/05/20 01:33:31;;;;;;;10.20;9.20;;;;;;;19.05;95.51;98641.78;4144482;28;21025;-89
2022/05/20 01:35:37;;;;;;;9.97;8.97;;;;;;;19.02;95.56;98637.59;4117224;28;20628;-89
2022/05/20 01:37:41;;;;;;;11.00;9.10;;;;;;;19.03;96.91;98639.28;4115333;28;20628;-88
2022/05/20 01:39:45;;;;;;;13.13;10.40;;;;;;;19.03;96.88;98633.97;4103160;28;21011;-89
2022/05/20 01:41:54;;;;;;;21.93;9.63;;;;;;;19.03;96.32;98638.41;4140740;28;20636;-89
2022/05/20 01:44:04;;;;;;;13.40;10.23;;;;;;;19.00;95.48;98641.31;4113081;28;20677;-89
2022/05/20 01:46:19;;;;;;;10.97;9.90;;;;;;;18.96;96.08;98632.03;4141761;28;20638;-88
2022/05/20 01:48:26;;;;;;;14.67;10.70;;;;;;;18.92;95.67;98626.16;4128969;28;20634;-89
2022/05/20 01:50:37;;;;;;;11.63;10.43;;;;;;;18.90;95.63;98622.00;4131538;28;20645;-89
2022/05/20 01:52:47;;;;;;;11.63;10.43;;;;;;;18.88;95.81;98622.16;4112828;28;21222;-89
2022/05/20 01:54:57;;;;;;;11.07;9.97;;;;;;;18.87;95.71;98624.09;4114592;28;20667;-89
2022/05/20 01:57:05;;;;;;;12.20;10.60;;;;;;;18.83;95.73;98633.31;4127485;28;21241;-89
2022/05/20 01:59:15;;;;;;;12.07;10.93;;;;;;;18.83;95.96;98628.84;4112222;28;21311;-88
2022/05/20 02:01:25;;;;;;;11.70;10.50;;;;;;;18.81;95.55;98622.88;4117654;28;20996;-89
2022/05/20 02:03:32;;;;;;;10.57;8.93;;;;;;;18.76;95.65;98619.78;4112194;28;20640;-89
2022/05/20 02:05:44;;;;;;;9.63;8.63;;;;;;;18.72;95.21;98612.28;4111905;28;21223;-89
2022/05/20 02:07:51;;;;;;;10.70;9.37;;;;;;;18.71;96.08;98626.50;4109400;28;20666;-89
2022/05/20 02:10:01;;;;;;;11.03;10.03;;;;;;;18.73;95.85;98624.53;4128808;28;20643;-89
2022/05/20 02:12:06;;;;;;;14.90;10.60;;;;;;;18.73;96.09;98619.25;4112648;28;20651;-89
2022/05/20 02:14:11;;;;;;;11.67;10.60;;;;;;;18.71;95.74;98619.41;4113876;28;21043;-89
2022/05/20 02:16:18;;;;;;;11.73;10.53;;;;;;;18.69;95.39;98621.34;4126449;28;20726;-89
2022/05/20 02:18:27;;;;;;;12.07;10.70;;;;;;;18.69;95.71;98618.72;4115301;28;20615;-89
2022/05/20 02:20:33;;;;;;;11.23;10.03;;;;;;;18.67;95.62;98623.31;4123633;28;20623;-89
2022/05/20 02:22:39;;;;;;;14.33;10.83;;;;;;;18.65;96.41;98627.06;4127695;28;20635;-89
2022/05/20 02:24:43;;;;;;;13.43;10.63;;;;;;;18.63;96.33;98618.47;4110154;28;21249;-89
2022/05/20 02:26:50;;;;;;;11.67;10.57;;;;;;;18.63;96.19;98615.81;4109725;28;20755;-89
2022/05/20 02:28:56;;;;;;;13.00;11.60;;;;;;;18.61;95.80;98610.66;4112636;28;20663;-89
2022/05/20 02:30:59;;;;;;;12.13;10.90;;;;;;;18.60;96.21;98618.75;4141804;28;20639;-89
2022/05/20 02:33:06;;;;;;;12.50;11.20;;;;;;;18.59;96.16;98628.44;4110259;28;20660;-89
2022/05/20 02:35:10;;;;;;;12.13;10.97;;;;;;;18.56;96.22;98626.09;4144142;28;20987;-89
2022/05/20 02:37:21;;;;;;;18.27;11.70;;;;;;;18.56;95.81;98623.44;4113348;28;21111;-89
2022/05/20 02:39:24;;;;;;;13.00;11.70;;;;;;;18.56;96.30;98627.91;4113414;28;20630;-88
2022/05/20 02:41:27;;;;;;;15.70;11.97;;;;;;;18.54;96.69;98632.50;4108357;28;20637;-89
2022/05/20 02:43:32;;;;;;;15.23;12.63;;;;;;;18.53;96.17;98628.19;4113188;28;20631;-89
2022/05/20 02:45:36;;;;;;;17.40;12.70;;;;;;;18.50;95.91;98634.56;4130046;28;20627;-89
2022/05/20 02:47:40;;;;;;;17.67;11.93;;;;;;;18.49;96.51;98629.44;4122985;28;21169;-89
2022/05/20 02:49:43;;;;;;;26.53;14.17;;;;;;;18.46;96.44;98632.34;4110103;28;20982;-89
2022/05/20 02:51:47;;;;;;;16.40;13.10;;;;;;;18.44;96.39;98634.31;4111590;28;21227;-89
2022/05/20 02:53:50;;;;;;;15.37;13.50;;;;;;;18.42;96.95;98633.63;4110559;28;20652;-88
2022/05/20 02:55:53;;;;;;;15.60;12.30;;;;;;;18.41;95.90;98637.22;4108788;28;20672;-89
2022/05/20 02:57:55;;;;;;;68.93;16.97;;;;;;;18.42;96.41;98633.63;4128870;28;20639;-88
2022/05/20 03:04:41;;;;;;;19.97;12.53;;;;;;;18.37;97.70;98627.09;4111364;28;20628;-88
2022/05/20 03:06:46;;;;;;;17.33;13.00;;;;;;;18.36;97.18;98630.69;4126872;28;20640;-88
2022/05/20 03:08:49;;;;;;;19.50;12.47;;;;;;;18.32;96.91;98626.69;4110545;28;20657;-89
2022/05/20 03:10:53;;;;;;;48.17;14.07;;;;;;;18.30;96.89;98621.53;4146683;28;20718;-89
2022/05/20 03:12:59;;;;;;;25.43;13.40;;;;;;;18.27;97.15;98621.00;4112676;28;20636;-89
2022/05/20 03:15:04;;;;;;;74.87;16.90;;;;;;;18.30;97.42;98623.34;4110265;28;20645;-89
2022/05/20 03:17:07;;;;;;;42.40;15.30;;;;;;;18.25;96.66;98615.00;4126686;28;20641;-88
2022/05/20 03:19:11;;;;;;;50.13;14.10;;;;;;;18.24;97.24;98624.72;4122881;28;21236;-88
2022/05/20 03:21:14;;;;;;;32.27;12.70;;;;;;;18.23;97.42;98624.88;4110416;28;20635;-89
2022/05/20 03:23:17;;;;;;;38.90;14.50;;;;;;;18.21;96.93;98625.00;4109526;28;20731;-88
2022/05/20 03:25:21;;;;;;;32.10;13.90;;;;;;;18.20;97.16;98625.97;4115546;28;20639;-89
2022/05/20 03:27:24;;;;;;;21.53;13.43;;;;;;;18.20;97.57;98631.25;4134464;28;21468;-89
2022/05/20 03:29:27;;;;;;;13.10;11.30;;;;;;;18.18;97.79;98627.09;4124909;28;20736;-89
2022/05/20 03:31:33;;;;;;;13.10;10.30;;;;;;;18.18;97.63;98627.91;4130009;28;21223;-88
2022/05/20 03:33:37;;;;;;;16.47;11.20;;;;;;;18.16;97.17;98629.03;4125046;28;20669;-89
2022/05/20 03:35:41;;;;;;;23.63;11.00;;;;;;;18.12;97.03;98630.25;4142487;28;20650;-89
2022/05/20 03:37:44;;;;;;;11.83;10.63;;;;;;;18.10;96.91;98632.19;4108503;28;21059;-89
2022/05/20 03:39:47;;;;;;;11.70;10.63;;;;;;;18.10;96.96;98630.41;4143543;28;20631;-89
2022/05/20 03:41:50;;;;;;;15.87;12.43;;;;;;;18.12;97.18;98632.91;4108867;28;20663;-89
2022/05/20 03:43:53;;;;;;;12.23;11.03;;;;;;;18.14;97.18;98636.25;4112730;28;20640;-89
2022/05/20 03:45:56;;;;;;;20.43;13.80;;;;;;;18.15;97.39;98630.84;4110314;28;20637;-89
2022/05/20 03:48:01;;;;;;;14.40;12.90;;;;;;;18.15;97.55;98630.84;4111352;28;20659;-88
2022/05/20 03:50:05;;;;;;;12.47;11.17;;;;;;;18.15;96.99;98632.66;4110565;28;21059;-88
2022/05/20 03:52:11;;;;;;;13.67;12.27;;;;;;;18.15;96.94;98636.13;4105719;28;20687;-88
2022/05/20 03:54:15;;;;;;;15.37;12.97;;;;;;;18.15;96.37;98635.28;4111517;28;20631;-88
2022/05/20 03:56:19;;;;;;;13.10;11.70;;;;;;;18.14;96.97;98634.44;4111246;28;20727;-89
2022/05/20 03:58:22;;;;;;;13.20;11.80;;;;;;;18.13;96.79;98631.94;4128923;28;20638;-88
2022/05/20 04:00:26;;;;;;;22.23;13.07;;;;;;;18.11;97.64;98631.22;4143722;28;21073;-88
2022/05/20 04:02:29;;;;;;;23.40;13.90;;;;;;;18.11;96.90;98629.41;4108318;28;20637;-89
2022/05/20 04:04:36;;;;;;;24.90;14.67;;;;;;;18.12;97.39;98628.44;4119145;28;21187;-89
2022/05/20 04:06:39;;;;;;;18.10;13.47;;;;;;;18.13;97.28;98627.50;4128532;28;20636;-89
2022/05/20 04:08:42;;;;;;;16.93;12.70;;;;;;;18.14;97.76;98630.97;4124231;28;24562;-89
2022/05/20 04:10:45;;;;;;;14.80;13.20;;;;;;;18.14;97.15;98630.97;4122465;28;20649;-89
2022/05/20 04:12:48;;;;;;;15.50;13.50;;;;;;;18.17;97.87;98628.06;4142524;28;20658;-89
2022/05/20 04:14:52;;;;;;;14.90;12.60;;;;;;;18.18;97.82;98630.56;4125461;28;20638;-89
2022/05/20 04:16:57;;;;;;;13.57;12.27;;;;;;;18.20;97.83;98633.06;4111966;28;20697;-89
2022/05/20 04:19:00;;;;;;;16.63;12.90;;;;;;;18.21;98.09;98634.75;4125193;28;20677;-89
2022/05/20 04:21:05;;;;;;;15.43;13.33;;;;;;;18.22;97.37;98625.81;4126370;28;20649;-89
2022/05/20 04:23:08;;;;;;;15.30;11.87;;;;;;;18.22;97.81;98618.75;4110750;28;20635;-89
2022/05/20 04:25:11;;;;;;;14.57;13.07;;;;;;;18.24;97.57;98632.66;4110497;28;20691;-88
2022/05/20 04:27:15;;;;;;;13.43;12.13;;;;;;;18.25;97.50;98623.75;4146627;28;20629;-88
2022/05/20 04:29:18;;;;;;;16.60;12.90;;;;;;;18.28;98.33;98625.28;4118533;28;20663;-89
2022/05/20 04:31:21;;;;;;;17.83;13.27;;;;;;;18.30;97.92;98624.16;4147727;28;20681;-89
2022/05/20 04:33:25;;;;;;;14.97;13.30;;;;;;;18.31;98.23;98623.22;4128320;28;20666;-89
2022/05/20 04:35:29;;;;;;;13.73;12.33;;;;;;;18.34;98.35;98617.63;4147832;28;20629;-89
2022/05/20 04:37:33;;;;;;;17.67;12.43;;;;;;;18.37;98.35;98621.81;4131048;28;20639;-90
2022/05/20 04:39:37;;;;;;;14.70;13.13;;;;;;;18.38;98.16;98612.91;4125109;28;20702;-89
2022/05/20 04:48:54;;;;;;;14.27;12.77;;;;;;;18.44;98.74;98614.00;4126395;28;20687;-89
2022/05/20 04:50:57;;;;;;;14.00;12.60;;;;;;;18.47;98.66;98611.06;4110844;28;21033;-89
2022/05/20 04:53:01;;;;;;;14.00;12.20;;;;;;;18.52;98.44;98608.00;4124918;28;20683;-89
2022/05/20 04:55:05;;;;;;;14.60;12.63;;;;;;;18.55;97.89;98616.50;4109458;28;20637;-89
2022/05/20 04:57:09;;;;;;;13.83;12.43;;;;;;;18.59;98.17;98611.78;4125487;28;20640;-89
2022/05/20 04:59:13;;;;;;;14.03;12.53;;;;;;;18.63;97.38;98619.28;4130995;28;20657;-89
2022/05/20 05:01:16;;;;;;;14.77;12.33;;;;;;;18.64;97.04;98614.81;4113024;28;20647;-89
2022/05/20 05:03:19;;;;;;;14.13;12.50;;;;;;;18.68;96.90;98610.94;4116203;28;20648;-89
2022/05/20 05:05:24;;;;;;;13.93;12.63;;;;;;;18.71;97.11;98619.41;4145946;28;20635;-89
2022/05/20 05:07:27;;;;;;;16.80;13.67;;;;;;;18.73;97.05;98608.69;4111359;28;20624;-89
2022/05/20 05:09:33;;;;;;;13.93;12.53;;;;;;;18.78;97.22;98609.94;4112723;28;20672;-89
2022/05/20 05:11:39;;;;;;;12.80;11.57;;;;;;;18.79;97.39;98614.22;4129416;28;20639;-89
2022/05/20 05:13:43;;;;;;;13.47;12.17;;;;;;;18.87;97.25;98621.44;4114291;28;20643;-89
2022/05/20 05:15:46;;;;;;;13.23;11.87;;;;;;;18.93;97.80;98624.38;4130768;28;20670;-89
2022/05/20 05:20:12;;;;;;;14.53;12.07;;;;;;;19.09;97.53;98636.06;4111082;28;20703;-89
2022/05/20 05:22:15;;;;;;;14.30;12.90;;;;;;;19.17;98.19;98648.53;4129140;28;21011;-89
2022/05/20 05:24:18;;;;;;;13.90;12.63;;;;;;;19.24;96.86;98642.53;4132591;28;20698;-89
2022/05/20 05:26:24;;;;;;;15.73;13.73;;;;;;;19.31;96.64;98633.03;4129496;28;20679;-89
2022/05/20 05:28:27;;;;;;;13.83;12.50;;;;;;;19.36;95.36;98632.59;4123005;28;20626;-89
2022/05/20 05:30:31;;;;;;;14.10;12.57;;;;;;;19.42;96.66;98633.69;4128599;28;21189;-90
2022/05/20 05:32:35;;;;;;;13.47;12.03;;;;;;;19.51;96.19;98646.03;4129687;28;21120;-89
2022/05/20 05:34:38;;;;;;;13.60;12.30;;;;;;;19.66;95.79;98641.91;4129841;28;21055;-89
2022/05/20 05:36:41;;;;;;;13.57;12.13;;;;;;;19.83;97.78;98649.91;4129946;28;20674;-89
2022/05/20 05:38:44;;;;;;;13.40;12.00;;;;;;;19.99;96.56;98641.34;4115555;28;24392;-88
2022/05/20 05:40:47;;;;;;;13.27;11.97;;;;;;;20.17;94.66;98639.56;4127099;28;20638;-91
2022/05/20 05:42:54;;;;;;;11.97;10.87;;;;;;;20.36;94.97;98638.41;4128714;28;21272;-90
2022/05/20 05:44:58;;;;;;;14.67;11.73;;;;;;;20.51;93.84;98631.59;4129475;28;20635;-89
2022/05/20 05:47:01;;;;;;;14.10;11.80;;;;;;;20.65;93.54;98633.69;4147636;28;20654;-88
2022/05/20 05:49:05;;;;;;;13.70;12.03;;;;;;;20.81;94.33;98633.88;4137827;28;20701;-89
2022/05/20 05:51:08;;;;;;;13.97;11.50;;;;;;;20.99;93.42;98635.50;4147194;28;20627;-89
2022/05/20 05:53:14;;;;;;;13.10;11.60;;;;;;;21.16;92.29;98639.09;4123048;28;20631;-89
2022/05/20 05:55:17;;;;;;;12.43;11.23;;;;;;;21.25;91.50;98644.28;4114127;28;20751;-89
2022/05/20 05:57:21;;;;;;;13.90;11.50;;;;;;;21.34;92.95;98641.50;4126209;28;21059;-88
2022/05/20 05:59:26;;;;;;;14.03;11.33;;;;;;;21.48;92.66;98651.56;4132662;28;20626;-89
2022/05/20 06:01:29;;;;;;;15.70;12.20;;;;;;;21.60;92.82;98647.63;4117884;28;21000;-89
2022/05/20 06:03:38;;;;;;;14.83;11.90;;;;;;;21.67;90.59;98634.56;4134053;28;20618;-89
2022/05/20 06:05:41;;;;;;;13.50;12.30;;;;;;;21.74;90.77;98640.88;4110330;28;20739;-89
2022/05/20 06:07:44;;;;;;;12.60;11.50;;;;;;;21.84;91.48;98645.09;4134043;28;21204;-89
2022/05/20 06:09:48;;;;;;;13.83;12.53;;;;;;;22.00;90.82;98650.47;4129293;28;20655;-89
2022/05/20 06:11:51;;;;;;;14.67;12.77;;;;;;;22.17;91.08;98639.69;4130046;28;21216;-90
2022/05/20 06:13:56;;;;;;;13.53;12.27;;;;;;;22.36;90.92;98629.63;4128162;28;20651;-88
2022/05/20 06:16:00;;;;;;;13.00;11.70;;;;;;;22.50;89.40;98638.78;4144468;28;20630;-89
2022/05/20 06:18:04;;;;;;;13.07;11.67;;;;;;;22.66;90.55;98636.97;4126542;28;20628;-89
2022/05/20 06:20:08;;;;;;;12.00;10.80;;;;;;;22.81;88.05;98632.66;4110262;28;21007;-88
2022/05/20 06:22:11;;;;;;;12.40;11.10;;;;;;;23.00;89.38;98637.63;4125863;28;20733;-88
2022/05/20 06:24:14;;;;;;;12.87;11.73;;;;;;;23.17;88.34;98633.94;4114087;28;20664;-88
2022/05/20 06:26:18;;;;;;;12.90;11.33;;;;;;;23.30;86.94;98635.09;4124496;28;20655;-88
2022/05/20 06:28:21;;;;;;;12.70;11.40;;;;;;;23.49;88.67;98634.72;4123790;28;20720;-88
2022/05/20 06:30:25;;;;;;;13.37;11.50;;;;;;;23.65;87.40;98640.84;4121870;28;20655;-89
2022/05/20 06:32:30;;;;;;;12.40;11.30;;;;;;;23.75;87.68;98638.78;4126396;28;21002;-89
2022/05/20 06:41:46;;;;;;;12.63;11.30;;;;;;;24.63;84.51;98638.13;4055234;29;20731;-88
2022/05/20 06:43:50;;;;;;;12.90;11.33;;;;;;;24.74;85.47;98634.19;4081105;29;20630;-91
2022/05/20 06:45:56;;;;;;;12.60;11.50;;;;;;;24.63;82.34;98637.31;4085243;29;20749;-90
2022/05/20 06:48:20;;;;;;;13.17;11.87;;;;;;;24.65;83.62;98638.75;4144310;28;20628;-90
2022/05/20 06:50:24;;;;;;;13.70;12.20;;;;;;;24.72;81.32;98637.06;4130158;28;20655;-90
2022/05/20 06:52:27;;;;;;;14.23;12.13;;;;;;;24.91;83.78;98644.56;4142632;28;21196;-90
2022/05/20 06:54:41;;;;;;;13.03;10.73;;;;;;;25.04;80.65;98647.47;4113408;28;21176;-90
2022/05/20 06:56:44;;;;;;;11.47;10.33;;;;;;;25.27;81.56;98643.75;4132763;28;20639;-90
2022/05/20 06:59:17;;;;;;;12.23;11.00;;;;;;;25.66;82.02;98647.88;4086351;29;20633;-90
2022/05/20 07:01:20;;;;;;;12.40;10.63;;;;;;;25.91;82.31;98653.75;4130982;28;20654;-90
2022/05/20 07:03:25;;;;;;;14.80;10.70;;;;;;;26.12;81.44;98655.44;4128379;28;21924;-90
2022/05/20 07:05:28;;;;;;;11.37;10.37;;;;;;;26.22;79.40;98647.97;4114732;28;20655;-90
2022/05/20 07:07:32;;;;;;;11.27;10.17;;;;;;;26.33;78.08;98642.13;4131180;28;20631;-90
2022/05/20 07:09:36;;;;;;;11.50;10.33;;;;;;;26.41;76.37;98638.53;4112919;28;20722;-90
2022/05/20 07:11:39;;;;;;;10.20;9.20;;;;;;;26.42;75.80;98634.84;4123428;28;20732;-90
2022/05/20 07:13:43;;;;;;;10.83;9.57;;;;;;;26.50;77.42;98638.19;4127236;28;20658;-90
2022/05/20 07:15:52;;;;;;;14.13;9.63;;;;;;;26.69;76.86;98633.03;4122497;28;20627;-90
2022/05/20 07:17:55;;;;;;;11.70;8.53;;;;;;;26.86;75.16;98628.25;4122312;28;20645;-90
2022/05/20 07:20:00;;;;;;;10.30;8.10;;;;;;;27.00;72.49;98636.22;4112186;28;20628;-90
2022/05/20 07:22:04;;;;;;;9.43;8.53;;;;;;;27.13;72.30;98639.84;4127879;28;20736;-90
2022/05/20 07:24:08;;;;;;;8.90;8.00;;;;;;;27.21;69.93;98633.50;4130052;28;20642;-90
2022/05/20 07:26:13;;;;;;;9.77;8.50;;;;;;;27.36;73.72;98632.38;4107140;28;20647;-90
2022/05/20 07:28:16;;;;;;;11.57;8.00;;;;;;;27.58;73.71;98637.50;4131041;28;20772;-90
2022/05/20 07:30:25;;;;;;;10.20;9.10;;;;;;;27.78;75.03;98637.63;4115988;28;20703;-90
2022/05/20 07:32:28;;;;;;;9.33;8.37;;;;;;;27.98;74.95;98631.34;4128629;28;20639;-90
2022/05/20 07:34:41;;;;;;;10.20;9.10;;;;;;;28.21;74.06;98634.53;4129281;28;20739;-90
2022/05/20 07:36:50;;;;;;;9.30;7.93;;;;;;;28.37;70.75;98626.97;4112131;28;21047;-90
2022/05/20 07:38:53;;;;;;;8.40;7.50;;;;;;;28.49;70.82;98636.03;4127662;28;20635;-90
2022/05/20 07:40:57;;;;;;;8.13;7.43;;;;;;;28.53;69.29;98631.94;4130109;28;20673;-90
2022/05/20 07:43:01;;;;;;;11.00;9.90;;;;;;;28.69;73.52;98628.91;4125557;28;20628;-90
2022/05/20 07:45:05;;;;;;;14.17;12.70;;;;;;;28.91;71.19;98633.88;4111547;28;21124;-90
2022/05/20 07:47:08;;;;;;;8.77;7.97;;;;;;;28.99;68.25;98623.75;4125261;28;20623;-90
2022/05/20 07:49:13;;;;;;;8.57;7.37;;;;;;;29.12;69.95;98622.91;4107426;28;20653;-90
2022/05/20 07:51:18;;;;;;;8.20;7.40;;;;;;;29.27;72.48;98627.06;4128026;28;20654;-88
2022/05/20 07:53:33;;;;;;;8.57;7.07;;;;;;;29.41;70.36;98628.72;4111947;28;21274;-88
2022/05/20 07:55:37;;;;;;;10.73;6.83;;;;;;;29.44;67.25;98620.22;4111995;28;20635;-88
2022/05/20 07:57:41;;;;;;;7.10;6.50;;;;;;;29.38;66.62;98621.06;4144695;28;20709;-88
2022/05/20 07:59:47;;;;;;;7.30;6.47;;;;;;;29.44;66.32;98614.00;4108263;28;20648;-88
2022/05/20 08:01:51;;;;;;;11.20;6.80;;;;;;;29.51;65.22;98611.13;4111774;28;20632;-88
2022/05/20 08:06:19;;;;;;;8.00;7.07;;;;;;;29.70;66.01;98615.59;4126011;28;20768;-87
2022/05/20 08:08:23;;;;;;;8.87;7.17;;;;;;;29.90;69.41;98618.25;4126627;28;21317;-88
2022/05/20 08:10:28;;;;;;;10.83;6.80;;;;;;;29.99;65.72;98613.28;4126924;28;20750;-88
2022/05/20 08:12:31;;;;;;;8.30;6.60;;;;;;;30.07;68.86;98609.47;4126678;28;21086;-88
2022/05/20 08:14:34;;;;;;;7.33;6.63;;;;;;;30.14;66.55;98610.28;4112821;28;20633;-88
2022/05/20 08:16:38;;;;;;;7.50;6.80;;;;;;;30.21;65.37;98608.41;4109283;28;20637;-88
2022/05/20 08:18:41;;;;;;;7.00;6.37;;;;;;;30.35;68.28;98613.50;4148237;28;20633;-88
2022/05/20 08:20:44;;;;;;;8.33;6.70;;;;;;;30.45;66.40;98613.88;4128600;28;20746;-88
2022/05/20 08:22:47;;;;;;;7.87;7.17;;;;;;;30.51;65.63;98605.75;4127450;28;20638;-88
2022/05/20 08:24:53;;;;;;;7.70;6.90;;;;;;;30.51;66.68;98605.75;4144973;28;20726;-88
2022/05/20 08:26:56;;;;;;;7.47;6.67;;;;;;;30.54;64.85;98601.81;4113709;28;20727;-87
2022/05/20 08:29:03;;;;;;;8.63;7.60;;;;;;;30.58;69.28;98600.31;4127739;28;20635;-88
2022/05/20 08:31:12;;;;;;;8.80;7.13;;;;;;;30.55;65.52;98589.97;4133006;28;20650;-88
2022/05/20 08:33:15;;;;;;;7.70;7.00;;;;;;;30.58;65.96;98586.84;4106155;28;20767;-88
2022/05/20 08:35:20;;;;;;;7.60;6.90;;;;;;;30.66;66.21;98579.31;4109742;28;20637;-88
2022/05/20 08:37:23;;;;;;;7.40;6.60;;;;;;;30.78;64.64;98577.56;4124926;28;20627;-88
2022/05/20 08:39:27;;;;;;;8.33;7.30;;;;;;;30.82;64.64;98583.34;4126438;28;20635;-88
2022/05/20 08:41:35;;;;;;;7.90;7.17;;;;;;;30.90;63.51;98580.41;4141739;28;21259;-88
2022/05/20 08:43:41;;;;;;;7.00;6.40;;;;;;;30.93;64.93;98576.22;4106627;28;20728;-88
2022/05/20 08:45:45;;;;;;;7.87;6.90;;;;;;;30.99;65.69;98577.22;4119236;28;20663;-88
2022/05/20 08:47:49;;;;;;;8.17;6.70;;;;;;;31.06;65.53;98572.59;4145963;28;20635;-88
2022/05/20 08:49:57;;;;;;;10.40;7.30;;;;;;;31.06;64.43;98568.03;4134251;28;20693;-88
2022/05/20 08:52:01;;;;;;;8.20;7.00;;;;;;;31.05;63.67;98566.38;4154830;28;20654;-87
2022/05/20 08:54:05;;;;;;;7.57;6.80;;;;;;;31.14;64.45;98565.03;4140697;28;20689;-88
2022/05/20 08:56:10;;;;;;;10.33;7.47;;;;;;;31.16;65.53;98567.53;4135525;28;20627;-88
2022/05/20 08:58:19;;;;;;;8.17;7.37;;;;;;;31.31;65.38;98559.91;4122955;28;20734;-87
2022/05/20 09:00:22;;;;;;;7.70;6.90;;;;;;;31.34;61.67;98562.97;4117547;28;20640;-88
2022/05/20 09:02:26;;;;;;;7.47;6.77;;;;;;;31.38;65.29;98556.09;4140693;28;20635;-88
2022/05/20 09:04:29;;;;;;;9.27;6.73;;;;;;;31.48;67.34;98553.72;4108400;28;20621;-88
2022/05/20 09:06:32;;;;;;;10.63;7.83;;;;;;;31.51;64.75;98554.13;4147758;28;20641;-87
2022/05/20 09:08:35;;;;;;;8.73;7.87;;;;;;;31.55;64.20;98551.78;4110888;28;20683;-87
2022/05/20 09:10:46;;;;;;;8.30;6.90;;;;;;;31.58;63.65;98560.25;4131231;28;20699;-89
2022/05/20 09:12:50;;;;;;;8.50;6.87;;;;;;;31.53;61.09;98548.50;4124179;28;21211;-88
2022/05/20 09:17:22;;;;;;;9.50;7.43;;;;;;;31.67;65.26;98541.88;4127062;28;20825;-88
2022/05/20 09:19:28;;;;;;;9.17;6.70;;;;;;;31.67;61.71;98542.69;4146400;28;20631;-88
2022/05/20 09:21:34;;;;;;;8.83;7.30;;;;;;;31.69;62.73;98531.66;4129439;28;21210;-88
2022/05/20 09:23:50;;;;;;;7.27;6.50;;;;;;;31.53;63.64;98533.13;4135555;28;20674;-88
2022/05/20 09:26:01;;;;;;;7.13;6.23;;;;;;;31.59;61.58;98526.81;4136241;28;20642;-87
2022/05/20 09:28:19;;;;;;;10.73;6.80;;;;;;;31.65;62.76;98522.38;4103357;28;20714;-88
2022/05/20 09:30:38;;;;;;;9.17;7.17;;;;;;;31.71;64.11;98521.47;4120781;28;20624;-88
2022/05/20 09:33:00;;;;;;;7.33;6.60;;;;;;;31.86;62.60;98511.09;4154434;28;21204;-88
2022/05/20 09:35:08;;;;;;;8.40;6.57;;;;;;;31.89;62.14;98517.69;4122225;28;20701;-88
2022/05/20 09:37:19;;;;;;;7.90;6.60;;;;;;;31.95;64.14;98510.59;4116203;28;21263;-88
2022/05/20 09:39:27;;;;;;;9.20;7.20;;;;;;;32.05;64.21;98508.97;4131842;28;20616;-88
2022/05/20 09:42:12;;;;;;;7.50;6.70;;;;;;;32.10;63.39;98500.19;4136388;28;20976;-88
2022/05/20 09:44:16;;;;;;;7.40;6.33;;;;;;;32.08;63.10;98503.13;4118733;28;20740;-88
2022/05/20 09:46:51;;;;;;;7.63;6.93;;;;;;;32.02;58.39;98490.53;4116289;28;20666;-87
2022/05/20 09:48:58;;;;;;;8.30;7.10;;;;;;;32.05;60.92;98494.66;4120312;28;20667;-88
2022/05/20 09:51:08;;;;;;;8.53;6.63;;;;;;;32.03;60.88;98488.66;4144743;28;20737;-88
2022/05/20 09:53:24;;;;;;;7.40;6.70;;;;;;;31.95;60.05;98495.22;4125207;28;20635;-88
2022/05/20 09:55:29;;;;;;;7.70;7.00;;;;;;;31.79;59.32;98484.19;4131928;28;20679;-88
2022/05/20 09:57:42;;;;;;;7.87;7.07;;;;;;;31.88;57.71;98488.22;4127460;28;20619;-88
2022/05/20 09:59:50;;;;;;;7.77;6.97;;;;;;;31.92;59.50;98478.66;4138244;28;20662;-88
2022/05/20 10:01:58;;;;;;;11.47;6.50;;;;;;;31.86;57.85;98489.50;4133753;28;20733;-88
2022/05/20 10:04:05;;;;;;;10.03;6.10;;;;;;;31.71;58.43;98484.50;4130795;28;20641;-88
2022/05/20 10:06:13;;;;;;;7.80;6.50;;;;;;;31.64;56.18;98480.25;4116067;28;20690;-87
2022/05/20 10:08:24;;;;;;;8.57;6.93;;;;;;;31.67;59.68;98475.22;4125146;28;20722;-89
2022/05/20 10:10:40;;;;;;;7.30;6.50;;;;;;;31.74;60.60;98475.13;4126773;28;21112;-91